SIA412 YPDN-AYPY
Flight info
| Callsign | SIA412 |
|---|---|
| Flight time | 2h 10m |
| Altitude | 41000 |
| Route | RUPEG DCT MASRA B598 ESKIM DCT GUMBU GUMBU1 |
| Aircraft | A359/H-SDE2E3GHIJ3J4J5LM1ORWXY/LB1D1 |
Departure
| Time | 2026-04-29 12:22 |
|---|---|
| Airport | Darwin International Airport / RAAF Darwin (YPDN) |
Arrival
| Time | 2026-04-29 14:33 |
|---|---|
| Airport | Port Moresby Jacksons International Airport (AYPY) |
| Time | Latitude | Longitude | Altitude | Speed | Heading |
|---|---|---|---|---|---|
| 2026-04-29 12:00 | -12.40899 | 130.87735 | 99 ft | 0 kts | 16° |
| 2026-04-29 12:08 | -12.40900 | 130.87735 | 99 ft | 1 kts | 16° |
| 2026-04-29 12:08 | -12.40912 | 130.87730 | 99 ft | 2 kts | 23° |
| 2026-04-29 12:08 | -12.40924 | 130.87726 | 99 ft | 2 kts | 353° |
| 2026-04-29 12:09 | -12.40937 | 130.87729 | 99 ft | 2 kts | 324° |
| 2026-04-29 12:09 | -12.40947 | 130.87738 | 99 ft | 2 kts | 295° |
| 2026-04-29 12:09 | -12.40951 | 130.87751 | 99 ft | 0 kts | 265° |
| 2026-04-29 12:18 | -12.40952 | 130.87738 | 80 ft | 7 kts | 266° |
| 2026-04-29 12:19 | -12.40957 | 130.87669 | 101 ft | 11 kts | 257° |
| 2026-04-29 12:19 | -12.40992 | 130.87612 | 102 ft | 8 kts | 221° |
| 2026-04-29 12:19 | -12.41033 | 130.87589 | 106 ft | 5 kts | 203° |
| 2026-04-29 12:19 | -12.41062 | 130.87579 | 105 ft | 4 kts | 199° |
| 2026-04-29 12:20 | -12.41087 | 130.87570 | 108 ft | 4 kts | 199° |
| 2026-04-29 12:20 | -12.41110 | 130.87561 | 104 ft | 4 kts | 199° |
| 2026-04-29 12:20 | -12.41133 | 130.87553 | 106 ft | 0 kts | 199° |
| 2026-04-29 12:21 | -12.41134 | 130.87553 | 106 ft | 0 kts | 199° |
| 2026-04-29 12:21 | -12.41150 | 130.87547 | 106 ft | 7 kts | 199° |
| 2026-04-29 12:21 | -12.41226 | 130.87530 | 106 ft | 13 kts | 171° |
| 2026-04-29 12:22 | -12.41293 | 130.87569 | 106 ft | 9 kts | 115° |
| 2026-04-29 12:22 | -12.41381 | 130.87825 | 107 ft | 86 kts | 108° |
| 2026-04-29 12:22 | -12.41676 | 130.88716 | 150 ft | 170 kts | 108° |
| 2026-04-29 12:22 | -12.42047 | 130.89823 | 1230 ft | 162 kts | 108° |
| 2026-04-29 12:23 | -12.42412 | 130.90906 | 1698 ft | 165 kts | 108° |
| 2026-04-29 12:23 | -12.42805 | 130.92081 | 1854 ft | 186 kts | 107° |
| 2026-04-29 12:23 | -12.43247 | 130.93409 | 2040 ft | 208 kts | 108° |
| 2026-04-29 12:23 | -12.43731 | 130.94858 | 2259 ft | 228 kts | 108° |
| 2026-04-29 12:24 | -12.44266 | 130.96459 | 2539 ft | 246 kts | 108° |
| 2026-04-29 12:24 | -12.44724 | 130.98165 | 3052 ft | 251 kts | 98° |
| 2026-04-29 12:24 | -12.44767 | 130.99945 | 3708 ft | 251 kts | 88° |
| 2026-04-29 12:24 | -12.44609 | 131.01724 | 4371 ft | 251 kts | 84° |
| 2026-04-29 12:25 | -12.44346 | 131.03487 | 5041 ft | 251 kts | 82° |
| 2026-04-29 12:25 | -12.44031 | 131.05245 | 5645 ft | 253 kts | 81° |
| 2026-04-29 12:25 | -12.43356 | 131.08789 | 6742 ft | 258 kts | 81° |
| 2026-04-29 12:26 | -12.43018 | 131.10611 | 7208 ft | 264 kts | 81° |
| 2026-04-29 12:26 | -12.42681 | 131.12473 | 7675 ft | 269 kts | 81° |
| 2026-04-29 12:26 | -12.42345 | 131.14370 | 8147 ft | 273 kts | 81° |
| 2026-04-29 12:26 | -12.42007 | 131.16297 | 8632 ft | 277 kts | 81° |
| 2026-04-29 12:27 | -12.41666 | 131.18250 | 9125 ft | 281 kts | 81° |
| 2026-04-29 12:27 | -12.41320 | 131.20233 | 9609 ft | 285 kts | 81° |
| 2026-04-29 12:27 | -12.40969 | 131.22242 | 10068 ft | 289 kts | 81° |
| 2026-04-29 12:27 | -12.40611 | 131.24293 | 10324 ft | 299 kts | 81° |
| 2026-04-29 12:28 | -12.40237 | 131.26434 | 10504 ft | 312 kts | 81° |
| 2026-04-29 12:28 | -12.39852 | 131.28636 | 10667 ft | 325 kts | 81° |
| 2026-04-29 12:28 | -12.39447 | 131.30949 | 10824 ft | 336 kts | 81° |
| 2026-04-29 12:28 | -12.39027 | 131.33341 | 10985 ft | 347 kts | 81° |
| 2026-04-29 12:29 | -12.38595 | 131.35800 | 11142 ft | 356 kts | 81° |
| 2026-04-29 12:29 | -12.38153 | 131.38315 | 11370 ft | 362 kts | 81° |
| 2026-04-29 12:29 | -12.37705 | 131.40861 | 11662 ft | 365 kts | 81° |
| 2026-04-29 12:29 | -12.37253 | 131.43425 | 11959 ft | 368 kts | 81° |
| 2026-04-29 12:30 | -12.36798 | 131.46010 | 12276 ft | 371 kts | 81° |
| 2026-04-29 12:30 | -12.36345 | 131.48578 | 12572 ft | 373 kts | 81° |
| 2026-04-29 12:30 | -12.35884 | 131.51196 | 12885 ft | 375 kts | 81° |
| 2026-04-29 12:30 | -12.35420 | 131.53828 | 13174 ft | 377 kts | 81° |
| 2026-04-29 12:31 | -12.34953 | 131.56477 | 13463 ft | 380 kts | 81° |
| 2026-04-29 12:31 | -12.34483 | 131.59140 | 13759 ft | 382 kts | 81° |
| 2026-04-29 12:31 | -12.34009 | 131.61820 | 14018 ft | 383 kts | 81° |
| 2026-04-29 12:31 | -12.33535 | 131.64504 | 14267 ft | 385 kts | 81° |
| 2026-04-29 12:32 | -12.33057 | 131.67206 | 14528 ft | 387 kts | 81° |
| 2026-04-29 12:32 | -12.32583 | 131.69886 | 14784 ft | 389 kts | 81° |
| 2026-04-29 12:32 | -12.32101 | 131.72608 | 15048 ft | 390 kts | 81° |
| 2026-04-29 12:32 | -12.31617 | 131.75341 | 15300 ft | 392 kts | 81° |
| 2026-04-29 12:33 | -12.31130 | 131.78088 | 15566 ft | 393 kts | 81° |
| 2026-04-29 12:33 | -12.30641 | 131.80846 | 15823 ft | 395 kts | 81° |
| 2026-04-29 12:33 | -12.30150 | 131.83615 | 16096 ft | 397 kts | 81° |
| 2026-04-29 12:33 | -12.29655 | 131.86399 | 16347 ft | 398 kts | 81° |
| 2026-04-29 12:34 | -12.29160 | 131.89189 | 16606 ft | 400 kts | 81° |
| 2026-04-29 12:34 | -12.28661 | 131.91996 | 16863 ft | 402 kts | 81° |
| 2026-04-29 12:34 | -12.28161 | 131.94808 | 17122 ft | 403 kts | 81° |
| 2026-04-29 12:34 | -12.27657 | 131.97637 | 17371 ft | 405 kts | 81° |
| 2026-04-29 12:35 | -12.27152 | 132.00472 | 17626 ft | 406 kts | 81° |
| 2026-04-29 12:35 | -12.26815 | 132.02358 | 17817 ft | 407 kts | 81° |
| 2026-04-29 12:35 | -12.26140 | 132.06146 | 18122 ft | 409 kts | 81° |
| 2026-04-29 12:35 | -12.25629 | 132.09009 | 18356 ft | 411 kts | 81° |
| 2026-04-29 12:36 | -12.25114 | 132.11893 | 18552 ft | 412 kts | 81° |
| 2026-04-29 12:36 | -12.24596 | 132.14791 | 18778 ft | 413 kts | 81° |
| 2026-04-29 12:36 | -12.24079 | 132.17688 | 18966 ft | 415 kts | 80° |
| 2026-04-29 12:36 | -12.23566 | 132.20560 | 19166 ft | 416 kts | 81° |
| 2026-04-29 12:37 | -12.23044 | 132.23477 | 19382 ft | 417 kts | 81° |
| 2026-04-29 12:37 | -12.22522 | 132.26406 | 19570 ft | 419 kts | 81° |
| 2026-04-29 12:37 | -12.22045 | 132.29350 | 19776 ft | 420 kts | 82° |
| 2026-04-29 12:37 | -12.21609 | 132.32315 | 19969 ft | 422 kts | 82° |
| 2026-04-29 12:38 | -12.21188 | 132.35284 | 20167 ft | 423 kts | 83° |
| 2026-04-29 12:38 | -12.20766 | 132.38272 | 20356 ft | 425 kts | 83° |
| 2026-04-29 12:38 | -12.20336 | 132.41264 | 20561 ft | 426 kts | 83° |
| 2026-04-29 12:38 | -12.19900 | 132.44261 | 20744 ft | 428 kts | 82° |
| 2026-04-29 12:39 | -12.19462 | 132.47230 | 20926 ft | 429 kts | 83° |
| 2026-04-29 12:39 | -12.19012 | 132.50254 | 21123 ft | 430 kts | 82° |
| 2026-04-29 12:39 | -12.18560 | 132.53282 | 21303 ft | 432 kts | 82° |
| 2026-04-29 12:39 | -12.18105 | 132.56324 | 21488 ft | 433 kts | 82° |
| 2026-04-29 12:40 | -12.17649 | 132.59370 | 21675 ft | 434 kts | 82° |
| 2026-04-29 12:40 | -12.17345 | 132.61393 | 21781 ft | 436 kts | 82° |
| 2026-04-29 12:40 | -12.16732 | 132.65497 | 22025 ft | 438 kts | 82° |
| 2026-04-29 12:40 | -12.16426 | 132.67541 | 22151 ft | 438 kts | 82° |
| 2026-04-29 12:41 | -12.15964 | 132.70626 | 22325 ft | 440 kts | 82° |
| 2026-04-29 12:41 | -12.15501 | 132.73720 | 22502 ft | 441 kts | 82° |
| 2026-04-29 12:41 | -12.15036 | 132.76821 | 22673 ft | 442 kts | 82° |
| 2026-04-29 12:41 | -12.14569 | 132.79933 | 22852 ft | 444 kts | 82° |
| 2026-04-29 12:42 | -12.14099 | 132.83060 | 23035 ft | 445 kts | 82° |
| 2026-04-29 12:42 | -12.13629 | 132.86185 | 23232 ft | 446 kts | 82° |
| 2026-04-29 12:42 | -12.13157 | 132.89321 | 23405 ft | 447 kts | 82° |
| 2026-04-29 12:42 | -12.12683 | 132.92467 | 23577 ft | 448 kts | 82° |
| 2026-04-29 12:43 | -12.12207 | 132.95631 | 23717 ft | 450 kts | 82° |
| 2026-04-29 12:43 | -12.11734 | 132.98762 | 23856 ft | 451 kts | 82° |
| 2026-04-29 12:43 | -12.11255 | 133.01939 | 24008 ft | 452 kts | 82° |
| 2026-04-29 12:43 | -12.10774 | 133.05121 | 24148 ft | 454 kts | 82° |
| 2026-04-29 12:44 | -12.10292 | 133.08314 | 24286 ft | 455 kts | 82° |
| 2026-04-29 12:44 | -12.09808 | 133.11511 | 24447 ft | 456 kts | 82° |
| 2026-04-29 12:44 | -12.09322 | 133.14720 | 24601 ft | 457 kts | 82° |
| 2026-04-29 12:44 | -12.08835 | 133.17937 | 24752 ft | 458 kts | 82° |
| 2026-04-29 12:45 | -12.08346 | 133.21160 | 24902 ft | 460 kts | 82° |
| 2026-04-29 12:45 | -12.07856 | 133.24391 | 25066 ft | 461 kts | 82° |
| 2026-04-29 12:45 | -12.07363 | 133.27637 | 25217 ft | 462 kts | 82° |
| 2026-04-29 12:45 | -12.06869 | 133.30888 | 25376 ft | 463 kts | 82° |
| 2026-04-29 12:46 | -12.06374 | 133.34141 | 25531 ft | 465 kts | 82° |
| 2026-04-29 12:46 | -12.05876 | 133.37410 | 25697 ft | 466 kts | 82° |
| 2026-04-29 12:46 | -12.05377 | 133.40682 | 25846 ft | 467 kts | 82° |
| 2026-04-29 12:46 | -12.04877 | 133.43966 | 26018 ft | 468 kts | 82° |
| 2026-04-29 12:47 | -12.04374 | 133.47257 | 26165 ft | 470 kts | 82° |
| 2026-04-29 12:47 | -12.03876 | 133.50519 | 26340 ft | 471 kts | 82° |
| 2026-04-29 12:47 | -12.03370 | 133.53830 | 26498 ft | 472 kts | 82° |
| 2026-04-29 12:47 | -12.02862 | 133.57149 | 26669 ft | 474 kts | 82° |
| 2026-04-29 12:48 | -12.02351 | 133.60487 | 26833 ft | 475 kts | 82° |
| 2026-04-29 12:48 | -12.01840 | 133.63825 | 27010 ft | 476 kts | 82° |
| 2026-04-29 12:48 | -12.01326 | 133.67173 | 27172 ft | 478 kts | 82° |
| 2026-04-29 12:48 | -12.00811 | 133.70532 | 27347 ft | 479 kts | 82° |
| 2026-04-29 12:49 | -12.00294 | 133.73895 | 27510 ft | 481 kts | 82° |
| 2026-04-29 12:49 | -11.99773 | 133.77283 | 27693 ft | 482 kts | 82° |
| 2026-04-29 12:49 | -11.99253 | 133.80666 | 27862 ft | 483 kts | 82° |
| 2026-04-29 12:49 | -11.98729 | 133.84068 | 28046 ft | 485 kts | 82° |
| 2026-04-29 12:50 | -11.98205 | 133.87471 | 28216 ft | 486 kts | 82° |
| 2026-04-29 12:50 | -11.97677 | 133.90890 | 28397 ft | 488 kts | 82° |
| 2026-04-29 12:50 | -11.97156 | 133.94268 | 28564 ft | 489 kts | 82° |
| 2026-04-29 12:50 | -11.96625 | 133.97702 | 28745 ft | 490 kts | 82° |
| 2026-04-29 12:51 | -11.96092 | 134.01151 | 28916 ft | 492 kts | 82° |
| 2026-04-29 12:51 | -11.95557 | 134.04609 | 29096 ft | 493 kts | 82° |
| 2026-04-29 12:51 | -11.95020 | 134.08076 | 29251 ft | 495 kts | 82° |
| 2026-04-29 12:51 | -11.94479 | 134.11567 | 29423 ft | 496 kts | 82° |
| 2026-04-29 12:52 | -11.93941 | 134.15059 | 29594 ft | 498 kts | 82° |
| 2026-04-29 12:52 | -11.93411 | 134.18554 | 29766 ft | 499 kts | 82° |
| 2026-04-29 12:52 | -11.92888 | 134.22018 | 29933 ft | 501 kts | 82° |
| 2026-04-29 12:52 | -11.92358 | 134.25535 | 30100 ft | 502 kts | 82° |
| 2026-04-29 12:53 | -11.91826 | 134.29061 | 30248 ft | 503 kts | 82° |
| 2026-04-29 12:53 | -11.91291 | 134.32598 | 30377 ft | 504 kts | 82° |
| 2026-04-29 12:53 | -11.90752 | 134.36146 | 30539 ft | 506 kts | 82° |
| 2026-04-29 12:53 | -11.90213 | 134.39696 | 30669 ft | 507 kts | 82° |
| 2026-04-29 12:54 | -11.89671 | 134.43257 | 30825 ft | 508 kts | 82° |
| 2026-04-29 12:54 | -11.88579 | 134.50417 | 31089 ft | 511 kts | 81° |
| 2026-04-29 12:54 | -11.88030 | 134.54014 | 31223 ft | 513 kts | 81° |
| 2026-04-29 12:55 | -11.87480 | 134.57620 | 31387 ft | 514 kts | 81° |
| 2026-04-29 12:55 | -11.86928 | 134.61231 | 31518 ft | 515 kts | 81° |
| 2026-04-29 12:55 | -11.86380 | 134.64807 | 31623 ft | 517 kts | 81° |
| 2026-04-29 12:55 | -11.85825 | 134.68437 | 31748 ft | 518 kts | 81° |
| 2026-04-29 12:56 | -11.85268 | 134.72072 | 31874 ft | 519 kts | 81° |
| 2026-04-29 12:56 | -11.84708 | 134.75721 | 32015 ft | 520 kts | 81° |
| 2026-04-29 12:56 | -11.84148 | 134.79370 | 32117 ft | 522 kts | 81° |
| 2026-04-29 12:56 | -11.83585 | 134.83031 | 32275 ft | 522 kts | 81° |
| 2026-04-29 12:57 | -11.83022 | 134.86693 | 32369 ft | 523 kts | 80° |
| 2026-04-29 12:57 | -11.82457 | 134.90367 | 32535 ft | 523 kts | 80° |
| 2026-04-29 12:57 | -11.81890 | 134.94045 | 32619 ft | 525 kts | 80° |
| 2026-04-29 12:57 | -11.81322 | 134.97730 | 32760 ft | 525 kts | 80° |
| 2026-04-29 12:58 | -11.80754 | 135.01415 | 32892 ft | 526 kts | 80° |
| 2026-04-29 12:58 | -11.80184 | 135.05101 | 33098 ft | 524 kts | 80° |
| 2026-04-29 12:58 | -11.79622 | 135.08745 | 33619 ft | 516 kts | 80° |
| 2026-04-29 12:58 | -11.79067 | 135.12340 | 34003 ft | 512 kts | 79° |
| 2026-04-29 12:59 | -11.78510 | 135.15941 | 34201 ft | 513 kts | 79° |
| 2026-04-29 12:59 | -11.77952 | 135.19538 | 34349 ft | 514 kts | 79° |
| 2026-04-29 12:59 | -11.77398 | 135.23105 | 34497 ft | 515 kts | 79° |
| 2026-04-29 13:00 | -11.76267 | 135.30377 | 34631 ft | 520 kts | 79° |
| 2026-04-29 13:00 | -11.75699 | 135.34029 | 34806 ft | 521 kts | 79° |
| 2026-04-29 13:00 | -11.75132 | 135.37674 | 35010 ft | 520 kts | 79° |
| 2026-04-29 13:00 | -11.74565 | 135.41316 | 35219 ft | 520 kts | 79° |
| 2026-04-29 13:01 | -11.73998 | 135.44954 | 35453 ft | 519 kts | 79° |
| 2026-04-29 13:01 | -11.73431 | 135.48593 | 35690 ft | 518 kts | 79° |
| 2026-04-29 13:01 | -11.72865 | 135.52217 | 35943 ft | 517 kts | 79° |
| 2026-04-29 13:01 | -11.72309 | 135.55775 | 36370 ft | 512 kts | 79° |
| 2026-04-29 13:02 | -11.71752 | 135.59341 | 36870 ft | 506 kts | 79° |
| 2026-04-29 13:02 | -11.71201 | 135.62867 | 37270 ft | 503 kts | 79° |
| 2026-04-29 13:02 | -11.70647 | 135.66399 | 37389 ft | 506 kts | 79° |
| 2026-04-29 13:03 | -11.69525 | 135.73534 | 37573 ft | 512 kts | 79° |
| 2026-04-29 13:03 | -11.68960 | 135.77128 | 37746 ft | 513 kts | 79° |
| 2026-04-29 13:03 | -11.68394 | 135.80730 | 37944 ft | 513 kts | 79° |
| 2026-04-29 13:03 | -11.67828 | 135.84325 | 38160 ft | 513 kts | 79° |
| 2026-04-29 13:04 | -11.67262 | 135.87922 | 38387 ft | 513 kts | 79° |
| 2026-04-29 13:04 | -11.66696 | 135.91518 | 38615 ft | 512 kts | 79° |
| 2026-04-29 13:04 | -11.66130 | 135.95106 | 38810 ft | 512 kts | 79° |
| 2026-04-29 13:04 | -11.65565 | 135.98690 | 38994 ft | 512 kts | 79° |
| 2026-04-29 13:05 | -11.65005 | 136.02233 | 39159 ft | 511 kts | 79° |
| 2026-04-29 13:05 | -11.64442 | 136.05800 | 39430 ft | 509 kts | 79° |
| 2026-04-29 13:05 | -11.63877 | 136.09366 | 39636 ft | 508 kts | 79° |
| 2026-04-29 13:05 | -11.63315 | 136.12919 | 39808 ft | 507 kts | 79° |
| 2026-04-29 13:06 | -11.62752 | 136.16467 | 39973 ft | 507 kts | 79° |
| 2026-04-29 13:06 | -11.62187 | 136.20028 | 40143 ft | 506 kts | 79° |
| 2026-04-29 13:06 | -11.61624 | 136.23574 | 40316 ft | 506 kts | 79° |
| 2026-04-29 13:06 | -11.61062 | 136.27110 | 40478 ft | 505 kts | 79° |
| 2026-04-29 13:07 | -11.60500 | 136.30647 | 40649 ft | 504 kts | 79° |
| 2026-04-29 13:07 | -11.59937 | 136.34180 | 40800 ft | 504 kts | 79° |
| 2026-04-29 13:07 | -11.59376 | 136.37705 | 40957 ft | 504 kts | 79° |
| 2026-04-29 13:08 | -11.58253 | 136.44763 | 40982 ft | 504 kts | 79° |
| 2026-04-29 13:08 | -11.57135 | 136.51775 | 40978 ft | 504 kts | 79° |
| 2026-04-29 13:09 | -11.56009 | 136.58826 | 40986 ft | 504 kts | 79° |
| 2026-04-29 13:09 | -11.54873 | 136.65920 | 40980 ft | 510 kts | 79° |
| 2026-04-29 13:10 | -11.53723 | 136.73101 | 40979 ft | 514 kts | 79° |
| 2026-04-29 13:10 | -11.52565 | 136.80317 | 40978 ft | 517 kts | 79° |
| 2026-04-29 13:11 | -11.51402 | 136.87558 | 40977 ft | 518 kts | 79° |
| 2026-04-29 13:11 | -11.50242 | 136.94767 | 40975 ft | 518 kts | 78° |
| 2026-04-29 13:12 | -11.49074 | 137.02014 | 40978 ft | 518 kts | 78° |
| 2026-04-29 13:12 | -11.47903 | 137.09270 | 40984 ft | 518 kts | 78° |
| 2026-04-29 13:13 | -11.46730 | 137.16518 | 40973 ft | 518 kts | 78° |
| 2026-04-29 13:13 | -11.45557 | 137.23764 | 40982 ft | 518 kts | 78° |
| 2026-04-29 13:14 | -11.44381 | 137.31011 | 40976 ft | 518 kts | 78° |
| 2026-04-29 13:14 | -11.43201 | 137.38270 | 40977 ft | 518 kts | 78° |
| 2026-04-29 13:15 | -11.42028 | 137.45479 | 40980 ft | 519 kts | 78° |
| 2026-04-29 13:15 | -11.40843 | 137.52745 | 40974 ft | 519 kts | 78° |
| 2026-04-29 13:16 | -11.39659 | 137.59994 | 40981 ft | 518 kts | 78° |
| 2026-04-29 13:16 | -11.38475 | 137.67238 | 40976 ft | 518 kts | 78° |
| 2026-04-29 13:17 | -11.37289 | 137.74478 | 40980 ft | 517 kts | 78° |
| 2026-04-29 13:17 | -11.36110 | 137.81664 | 40975 ft | 517 kts | 78° |
| 2026-04-29 13:18 | -11.34920 | 137.88902 | 40979 ft | 518 kts | 78° |
| 2026-04-29 13:18 | -11.33729 | 137.96138 | 40968 ft | 518 kts | 78° |
| 2026-04-29 13:19 | -11.32536 | 138.03378 | 40981 ft | 518 kts | 78° |
| 2026-04-29 13:19 | -11.31339 | 138.10624 | 40972 ft | 518 kts | 78° |
| 2026-04-29 13:20 | -11.30141 | 138.17874 | 40974 ft | 519 kts | 78° |
| 2026-04-29 13:20 | -11.28942 | 138.25115 | 40982 ft | 519 kts | 78° |
| 2026-04-29 13:21 | -11.27738 | 138.32370 | 40963 ft | 519 kts | 78° |
| 2026-04-29 13:21 | -11.27139 | 138.35982 | 40710 ft | 513 kts | 78° |
| 2026-04-29 13:21 | -11.26553 | 138.39512 | 40221 ft | 508 kts | 78° |
| 2026-04-29 13:21 | -11.25964 | 138.43055 | 40000 ft | 509 kts | 78° |
| 2026-04-29 13:22 | -11.25361 | 138.46672 | 39973 ft | 513 kts | 78° |
| 2026-04-29 13:22 | -11.24167 | 138.53828 | 39972 ft | 518 kts | 78° |
| 2026-04-29 13:23 | -11.22964 | 138.61039 | 40331 ft | 512 kts | 78° |
| 2026-04-29 13:23 | -11.22372 | 138.64597 | 40675 ft | 507 kts | 78° |
| 2026-04-29 13:23 | -11.21780 | 138.68139 | 40905 ft | 505 kts | 78° |
| 2026-04-29 13:23 | -11.21191 | 138.71660 | 41077 ft | 504 kts | 78° |
| 2026-04-29 13:24 | -11.20602 | 138.75180 | 41230 ft | 504 kts | 78° |
| 2026-04-29 13:24 | -11.20013 | 138.78689 | 41381 ft | 503 kts | 78° |
| 2026-04-29 13:24 | -11.19424 | 138.82202 | 41522 ft | 503 kts | 78° |
| 2026-04-29 13:24 | -11.18835 | 138.85708 | 41655 ft | 502 kts | 78° |
| 2026-04-29 13:25 | -11.18245 | 138.89218 | 41771 ft | 502 kts | 78° |
| 2026-04-29 13:25 | -11.17066 | 138.96229 | 41958 ft | 502 kts | 78° |
| 2026-04-29 13:25 | -11.16475 | 138.99740 | 41978 ft | 504 kts | 78° |
| 2026-04-29 13:26 | -11.15285 | 139.06799 | 41971 ft | 508 kts | 78° |
| 2026-04-29 13:26 | -11.14092 | 139.13867 | 41976 ft | 510 kts | 78° |
| 2026-04-29 13:27 | -11.12887 | 139.20998 | 41976 ft | 512 kts | 78° |
| 2026-04-29 13:27 | -11.11677 | 139.28150 | 41979 ft | 513 kts | 78° |
| 2026-04-29 13:28 | -11.10462 | 139.35321 | 41977 ft | 514 kts | 78° |
| 2026-04-29 13:28 | -11.09451 | 139.41275 | 41977 ft | 514 kts | 78° |
| 2026-04-29 13:29 | -11.08034 | 139.49614 | 41980 ft | 514 kts | 78° |
| 2026-04-29 13:29 | -11.06812 | 139.56791 | 41980 ft | 515 kts | 78° |
| 2026-04-29 13:30 | -11.05795 | 139.62760 | 41980 ft | 515 kts | 78° |
| 2026-04-29 13:30 | -11.04568 | 139.69946 | 41980 ft | 515 kts | 78° |
| 2026-04-29 13:31 | -11.03140 | 139.78298 | 41975 ft | 516 kts | 78° |
| 2026-04-29 13:31 | -11.02108 | 139.84325 | 41977 ft | 516 kts | 78° |
| 2026-04-29 13:32 | -11.00884 | 139.91467 | 41980 ft | 516 kts | 78° |
| 2026-04-29 13:32 | -10.99649 | 139.98661 | 41980 ft | 516 kts | 78° |
| 2026-04-29 13:33 | -10.98412 | 140.05855 | 41881 ft | 512 kts | 78° |
| 2026-04-29 13:33 | -10.97802 | 140.09407 | 41429 ft | 507 kts | 78° |
| 2026-04-29 13:33 | -10.97197 | 140.12923 | 41067 ft | 503 kts | 78° |
| 2026-04-29 13:34 | -10.95978 | 140.19985 | 40980 ft | 510 kts | 78° |
| 2026-04-29 13:34 | -10.94756 | 140.27072 | 40978 ft | 514 kts | 78° |
| 2026-04-29 13:35 | -10.93516 | 140.34260 | 40974 ft | 517 kts | 78° |
| 2026-04-29 13:35 | -10.92272 | 140.41463 | 40984 ft | 517 kts | 78° |
| 2026-04-29 13:36 | -10.91024 | 140.48680 | 40977 ft | 518 kts | 78° |
| 2026-04-29 13:36 | -10.89772 | 140.55906 | 40978 ft | 519 kts | 78° |
| 2026-04-29 13:37 | -10.88528 | 140.63077 | 40983 ft | 518 kts | 78° |
| 2026-04-29 13:37 | -10.87275 | 140.70289 | 40983 ft | 518 kts | 78° |
| 2026-04-29 13:38 | -10.86019 | 140.77505 | 40979 ft | 518 kts | 78° |
| 2026-04-29 13:38 | -10.84762 | 140.84719 | 40978 ft | 518 kts | 78° |
| 2026-04-29 13:39 | -10.83503 | 140.91936 | 40980 ft | 518 kts | 78° |
| 2026-04-29 13:39 | -10.82248 | 140.99115 | 40978 ft | 519 kts | 78° |
| 2026-04-29 13:40 | -10.80984 | 141.06339 | 40984 ft | 519 kts | 78° |
| 2026-04-29 13:40 | -10.79719 | 141.13557 | 40977 ft | 519 kts | 78° |
| 2026-04-29 13:41 | -10.78450 | 141.20788 | 40982 ft | 519 kts | 78° |
| 2026-04-29 13:41 | -10.77189 | 141.27969 | 40983 ft | 519 kts | 78° |
| 2026-04-29 13:42 | -10.75916 | 141.35200 | 40975 ft | 519 kts | 78° |
| 2026-04-29 13:42 | -10.74642 | 141.42430 | 40978 ft | 520 kts | 77° |
| 2026-04-29 13:43 | -10.73365 | 141.49666 | 40983 ft | 520 kts | 77° |
| 2026-04-29 13:43 | -10.72095 | 141.56854 | 40977 ft | 520 kts | 77° |
| 2026-04-29 13:44 | -10.70815 | 141.64086 | 40974 ft | 520 kts | 77° |
| 2026-04-29 13:44 | -10.69531 | 141.71334 | 40980 ft | 520 kts | 77° |
| 2026-04-29 13:45 | -10.68247 | 141.78570 | 40979 ft | 520 kts | 77° |
| 2026-04-29 13:45 | -10.66960 | 141.85812 | 40983 ft | 519 kts | 77° |
| 2026-04-29 13:46 | -10.65682 | 141.92994 | 40983 ft | 519 kts | 77° |
| 2026-04-29 13:46 | -10.64395 | 142.00219 | 40979 ft | 519 kts | 77° |
| 2026-04-29 13:47 | -10.63107 | 142.07437 | 40970 ft | 519 kts | 77° |
| 2026-04-29 13:47 | -10.61815 | 142.14668 | 40963 ft | 520 kts | 77° |
| 2026-04-29 13:48 | -10.60519 | 142.21912 | 40965 ft | 520 kts | 77° |
| 2026-04-29 13:48 | -10.59224 | 142.29142 | 40969 ft | 520 kts | 77° |
| 2026-04-29 13:49 | -10.57759 | 142.36346 | 40968 ft | 519 kts | 75° |
| 2026-04-29 13:49 | -10.56116 | 142.43443 | 40964 ft | 519 kts | 74° |
| 2026-04-29 13:50 | -10.54468 | 142.50610 | 40976 ft | 519 kts | 75° |
| 2026-04-29 13:50 | -10.52858 | 142.57773 | 40975 ft | 520 kts | 75° |
| 2026-04-29 13:51 | -10.51259 | 142.64952 | 40979 ft | 520 kts | 75° |
| 2026-04-29 13:51 | -10.49672 | 142.72075 | 40974 ft | 519 kts | 75° |
| 2026-04-29 13:52 | -10.48075 | 142.79230 | 40968 ft | 518 kts | 75° |
| 2026-04-29 13:52 | -10.46476 | 142.86378 | 40970 ft | 519 kts | 75° |
| 2026-04-29 13:53 | -10.44876 | 142.93521 | 40976 ft | 519 kts | 75° |
| 2026-04-29 13:53 | -10.43274 | 143.00669 | 40976 ft | 519 kts | 75° |
| 2026-04-29 13:54 | -10.41668 | 143.07825 | 40976 ft | 519 kts | 75° |
| 2026-04-29 13:54 | -10.40069 | 143.14945 | 40968 ft | 519 kts | 75° |
| 2026-04-29 13:55 | -10.38461 | 143.22094 | 40973 ft | 519 kts | 75° |
| 2026-04-29 13:55 | -10.36848 | 143.29258 | 40979 ft | 520 kts | 75° |
| 2026-04-29 13:56 | -10.35234 | 143.36422 | 40973 ft | 520 kts | 75° |
| 2026-04-29 13:56 | -10.33624 | 143.43558 | 40979 ft | 521 kts | 75° |
| 2026-04-29 13:57 | -10.32006 | 143.50721 | 40964 ft | 520 kts | 75° |
| 2026-04-29 13:57 | -10.30389 | 143.57875 | 40975 ft | 519 kts | 75° |
| 2026-04-29 13:58 | -10.28771 | 143.65023 | 40971 ft | 518 kts | 75° |
| 2026-04-29 13:58 | -10.27152 | 143.72168 | 40971 ft | 518 kts | 75° |
| 2026-04-29 13:59 | -10.25532 | 143.79308 | 40971 ft | 519 kts | 75° |
| 2026-04-29 13:59 | -10.23919 | 143.86410 | 40965 ft | 519 kts | 75° |
| 2026-04-29 14:00 | -10.22295 | 143.93557 | 40970 ft | 520 kts | 75° |
| 2026-04-29 14:00 | -10.20664 | 144.00706 | 40971 ft | 520 kts | 75° |
| 2026-04-29 14:01 | -10.19016 | 144.07862 | 40973 ft | 519 kts | 75° |
| 2026-04-29 14:01 | -10.17370 | 144.15008 | 40963 ft | 519 kts | 75° |
| 2026-04-29 14:02 | -10.15726 | 144.22150 | 40962 ft | 519 kts | 75° |
| 2026-04-29 14:02 | -10.14081 | 144.29293 | 40964 ft | 520 kts | 75° |
| 2026-04-29 14:03 | -10.12445 | 144.36394 | 40964 ft | 519 kts | 75° |
| 2026-04-29 14:03 | -10.10800 | 144.43525 | 40964 ft | 518 kts | 75° |
| 2026-04-29 14:04 | -10.09154 | 144.50651 | 40961 ft | 518 kts | 75° |
| 2026-04-29 14:04 | -10.07502 | 144.57796 | 40958 ft | 519 kts | 75° |
| 2026-04-29 14:05 | -10.05860 | 144.64889 | 40961 ft | 519 kts | 75° |
| 2026-04-29 14:05 | -10.04208 | 144.72018 | 40960 ft | 519 kts | 75° |
| 2026-04-29 14:06 | -10.02555 | 144.79147 | 40962 ft | 519 kts | 75° |
| 2026-04-29 14:06 | -10.00895 | 144.86296 | 40958 ft | 519 kts | 75° |
| 2026-04-29 14:07 | -9.99245 | 144.93394 | 40957 ft | 520 kts | 75° |
| 2026-04-29 14:07 | -9.97585 | 145.00530 | 40953 ft | 519 kts | 75° |
| 2026-04-29 14:08 | -9.95919 | 145.07684 | 40954 ft | 520 kts | 75° |
| 2026-04-29 14:08 | -9.94255 | 145.14821 | 40946 ft | 520 kts | 75° |
| 2026-04-29 14:09 | -9.92612 | 145.21874 | 40675 ft | 507 kts | 75° |
| 2026-04-29 14:09 | -9.91810 | 145.25312 | 40423 ft | 505 kts | 75° |
| 2026-04-29 14:09 | -9.90993 | 145.28807 | 40168 ft | 505 kts | 75° |
| 2026-04-29 14:10 | -9.90183 | 145.32269 | 39608 ft | 504 kts | 75° |
| 2026-04-29 14:10 | -9.89383 | 145.35683 | 38934 ft | 505 kts | 75° |
| 2026-04-29 14:10 | -9.88571 | 145.39149 | 38207 ft | 506 kts | 75° |
| 2026-04-29 14:10 | -9.87758 | 145.42620 | 37526 ft | 505 kts | 75° |
| 2026-04-29 14:11 | -9.86946 | 145.46086 | 36850 ft | 504 kts | 75° |
| 2026-04-29 14:11 | -9.86137 | 145.49537 | 36171 ft | 504 kts | 75° |
| 2026-04-29 14:11 | -9.85413 | 145.52625 | 35546 ft | 504 kts | 75° |
| 2026-04-29 14:11 | -9.84617 | 145.56017 | 34854 ft | 505 kts | 76° |
| 2026-04-29 14:12 | -9.83822 | 145.59404 | 34074 ft | 508 kts | 76° |
| 2026-04-29 14:12 | -9.83002 | 145.62899 | 33169 ft | 512 kts | 76° |
| 2026-04-29 14:12 | -9.82175 | 145.66418 | 32286 ft | 514 kts | 76° |
| 2026-04-29 14:12 | -9.81346 | 145.69949 | 31421 ft | 516 kts | 76° |
| 2026-04-29 14:13 | -9.80511 | 145.73501 | 30510 ft | 519 kts | 76° |
| 2026-04-29 14:13 | -9.79671 | 145.77074 | 29536 ft | 522 kts | 76° |
| 2026-04-29 14:13 | -9.78832 | 145.80640 | 28788 ft | 518 kts | 76° |
| 2026-04-29 14:13 | -9.78000 | 145.84174 | 28089 ft | 513 kts | 76° |
| 2026-04-29 14:14 | -9.77136 | 145.87658 | 27402 ft | 507 kts | 72° |
| 2026-04-29 14:14 | -9.75781 | 145.90873 | 26763 ft | 501 kts | 60° |
| 2026-04-29 14:14 | -9.73803 | 145.93761 | 26085 ft | 496 kts | 51° |
| 2026-04-29 14:14 | -9.71650 | 145.96472 | 25416 ft | 492 kts | 50° |
| 2026-04-29 14:15 | -9.69485 | 145.99137 | 24768 ft | 488 kts | 50° |
| 2026-04-29 14:15 | -9.67333 | 146.01775 | 24111 ft | 483 kts | 50° |
| 2026-04-29 14:15 | -9.65200 | 146.04387 | 23442 ft | 477 kts | 50° |
| 2026-04-29 14:15 | -9.63138 | 146.06912 | 22748 ft | 454 kts | 50° |
| 2026-04-29 14:16 | -9.61139 | 146.09361 | 22109 ft | 448 kts | 50° |
| 2026-04-29 14:16 | -9.59192 | 146.11744 | 21484 ft | 443 kts | 50° |
| 2026-04-29 14:16 | -9.57239 | 146.14133 | 20873 ft | 438 kts | 49° |
| 2026-04-29 14:16 | -9.55301 | 146.16503 | 20245 ft | 434 kts | 49° |
| 2026-04-29 14:17 | -9.53380 | 146.18852 | 19646 ft | 430 kts | 49° |
| 2026-04-29 14:17 | -9.51479 | 146.21176 | 19022 ft | 427 kts | 49° |
| 2026-04-29 14:17 | -9.49593 | 146.23487 | 18401 ft | 424 kts | 49° |
| 2026-04-29 14:17 | -9.47721 | 146.25777 | 17718 ft | 421 kts | 48° |
| 2026-04-29 14:18 | -9.45864 | 146.28046 | 17084 ft | 416 kts | 48° |
| 2026-04-29 14:18 | -9.44028 | 146.30288 | 16464 ft | 411 kts | 49° |
| 2026-04-29 14:18 | -9.42242 | 146.32470 | 15861 ft | 406 kts | 49° |
| 2026-04-29 14:18 | -9.40451 | 146.34656 | 15251 ft | 401 kts | 49° |
| 2026-04-29 14:19 | -9.38731 | 146.36858 | 14636 ft | 397 kts | 54° |
| 2026-04-29 14:19 | -9.37498 | 146.39347 | 14015 ft | 396 kts | 70° |
| 2026-04-29 14:19 | -9.36796 | 146.42029 | 13350 ft | 393 kts | 76° |
| 2026-04-29 14:19 | -9.36207 | 146.44709 | 12729 ft | 388 kts | 76° |
| 2026-04-29 14:20 | -9.35638 | 146.47320 | 12124 ft | 371 kts | 76° |
| 2026-04-29 14:20 | -9.35079 | 146.49859 | 11702 ft | 365 kts | 77° |
| 2026-04-29 14:20 | -9.34548 | 146.52253 | 11580 ft | 332 kts | 76° |
| 2026-04-29 14:20 | -9.34070 | 146.54398 | 11483 ft | 302 kts | 76° |
| 2026-04-29 14:21 | -9.33628 | 146.56376 | 11381 ft | 279 kts | 76° |
| 2026-04-29 14:21 | -9.33198 | 146.58291 | 11240 ft | 278 kts | 76° |
| 2026-04-29 14:21 | -9.32771 | 146.60192 | 11117 ft | 276 kts | 76° |
| 2026-04-29 14:21 | -9.32343 | 146.62088 | 10993 ft | 276 kts | 76° |
| 2026-04-29 14:22 | -9.31917 | 146.63982 | 10865 ft | 277 kts | 76° |
| 2026-04-29 14:22 | -9.31489 | 146.65884 | 10632 ft | 277 kts | 77° |
| 2026-04-29 14:22 | -9.31063 | 146.67774 | 10323 ft | 274 kts | 77° |
| 2026-04-29 14:22 | -9.30641 | 146.69647 | 10027 ft | 272 kts | 77° |
| 2026-04-29 14:23 | -9.30225 | 146.71497 | 9746 ft | 279 kts | 77° |
| 2026-04-29 14:23 | -9.29783 | 146.73458 | 9576 ft | 290 kts | 77° |
| 2026-04-29 14:23 | -9.29335 | 146.75446 | 9316 ft | 288 kts | 77° |
| 2026-04-29 14:23 | -9.28889 | 146.77424 | 8840 ft | 288 kts | 77° |
| 2026-04-29 14:24 | -9.28445 | 146.79390 | 8457 ft | 286 kts | 77° |
| 2026-04-29 14:24 | -9.28004 | 146.81350 | 8135 ft | 284 kts | 77° |
| 2026-04-29 14:24 | -9.27566 | 146.83289 | 7825 ft | 282 kts | 78° |
| 2026-04-29 14:24 | -9.27131 | 146.85221 | 7516 ft | 281 kts | 78° |
| 2026-04-29 14:25 | -9.26702 | 146.87122 | 7200 ft | 280 kts | 78° |
| 2026-04-29 14:25 | -9.26270 | 146.89034 | 6891 ft | 279 kts | 78° |
| 2026-04-29 14:25 | -9.25842 | 146.90944 | 6583 ft | 278 kts | 78° |
| 2026-04-29 14:25 | -9.25414 | 146.92843 | 6250 ft | 276 kts | 78° |
| 2026-04-29 14:26 | -9.24986 | 146.94733 | 5935 ft | 275 kts | 78° |
| 2026-04-29 14:26 | -9.24558 | 146.96618 | 5627 ft | 274 kts | 78° |
| 2026-04-29 14:26 | -9.23924 | 146.98433 | 5304 ft | 275 kts | 64° |
| 2026-04-29 14:26 | -9.22973 | 147.00104 | 4985 ft | 274 kts | 59° |
| 2026-04-29 14:27 | -9.21980 | 147.01719 | 4678 ft | 274 kts | 59° |
| 2026-04-29 14:27 | -9.20998 | 147.03356 | 4339 ft | 271 kts | 63° |
| 2026-04-29 14:27 | -9.20453 | 147.05159 | 4029 ft | 268 kts | 88° |
| 2026-04-29 14:28 | -9.21968 | 147.08372 | 3428 ft | 261 kts | 143° |
| 2026-04-29 14:28 | -9.23491 | 147.09378 | 3106 ft | 261 kts | 149° |
| 2026-04-29 14:28 | -9.25051 | 147.10312 | 2806 ft | 260 kts | 149° |
| 2026-04-29 14:28 | -9.26561 | 147.11223 | 2718 ft | 245 kts | 149° |
| 2026-04-29 14:29 | -9.27982 | 147.12066 | 2684 ft | 229 kts | 150° |
| 2026-04-29 14:29 | -9.29305 | 147.12844 | 2604 ft | 216 kts | 148° |
| 2026-04-29 14:29 | -9.30552 | 147.13621 | 2499 ft | 205 kts | 148° |
| 2026-04-29 14:29 | -9.31721 | 147.14351 | 2496 ft | 189 kts | 148° |
| 2026-04-29 14:30 | -9.32797 | 147.15012 | 2413 ft | 174 kts | 148° |
| 2026-04-29 14:30 | -9.33798 | 147.15623 | 2192 ft | 163 kts | 148° |
| 2026-04-29 14:30 | -9.34735 | 147.16205 | 1990 ft | 155 kts | 148° |
| 2026-04-29 14:30 | -9.35634 | 147.16764 | 1784 ft | 148 kts | 148° |
| 2026-04-29 14:31 | -9.36484 | 147.17292 | 1603 ft | 139 kts | 148° |
| 2026-04-29 14:31 | -9.37303 | 147.17801 | 1429 ft | 138 kts | 148° |
| 2026-04-29 14:31 | -9.38111 | 147.18302 | 1262 ft | 138 kts | 148° |
| 2026-04-29 14:31 | -9.38930 | 147.18811 | 1052 ft | 138 kts | 148° |
| 2026-04-29 14:32 | -9.39747 | 147.19318 | 887 ft | 137 kts | 148° |
| 2026-04-29 14:32 | -9.40558 | 147.19822 | 711 ft | 136 kts | 148° |
| 2026-04-29 14:32 | -9.41364 | 147.20323 | 535 ft | 135 kts | 148° |
| 2026-04-29 14:32 | -9.42166 | 147.20821 | 365 ft | 135 kts | 148° |
| 2026-04-29 14:33 | -9.42963 | 147.21316 | 199 ft | 135 kts | 148° |
| 2026-04-29 14:33 | -9.43741 | 147.21800 | 114 ft | 124 kts | 149° |
| 2026-04-29 14:33 | -9.44146 | 147.22049 | 119 ft | 32 kts | 148° |
| 2026-04-29 14:33 | -9.44329 | 147.22166 | 121 ft | 30 kts | 148° |
| 2026-04-29 14:34 | -9.44469 | 147.22235 | 121 ft | 0 kts | 167° |
| 2026-04-29 14:34 | -9.44470 | 147.22236 | 121 ft | 1 kts | 167° |
| 2026-04-29 14:34 | -9.44478 | 147.22231 | 121 ft | 1 kts | 210° |
| 2026-04-29 14:34 | -9.44489 | 147.22216 | 122 ft | 5 kts | 236° |
| 2026-04-29 14:35 | -9.44518 | 147.22162 | 120 ft | 12 kts | 241° |
| 2026-04-29 14:35 | -9.44557 | 147.22086 | 123 ft | 12 kts | 244° |
| 2026-04-29 14:35 | -9.44595 | 147.22014 | 125 ft | 11 kts | 239° |
| 2026-04-29 14:35 | -9.44639 | 147.21940 | 122 ft | 13 kts | 238° |
| 2026-04-29 14:36 | -9.44689 | 147.21852 | 129 ft | 12 kts | 250° |
| 2026-04-29 14:36 | -9.44684 | 147.21784 | 129 ft | 10 kts | 282° |
| 2026-04-29 14:36 | -9.44696 | 147.21736 | 125 ft | 2 kts | 239° |
| 2026-04-29 14:38 | -9.44700 | 147.21730 | 124 ft | 0 kts | 235° |